EBAW

EBAW 131320Z 29013KT 9999 -RA FEW011 BKN018 07/06 Q0979 TEMPO 29015G26KT

TAF TAF EBAW 251700Z 2518/2606 11007KT CAVOK PROB30 TEMPO 2518/2520 VRB15G30KT 3500 SHRA TSRA

EHWO

EHWO 131345Z AUTO 29012KT 230V330 9999 SCT016 BKN025 OVC029 07/06 Q0979 WHT 29012KT 9999 FEW015 BKN025 TEMPO 29010G20KT SCT015 BKN020

TAF TAF EHWO 130909Z 1310/1322 27005KT 9000 BKN006 BECMG 1310/1312 28012G25KT TEMPO 1310/1312 1500 DZ SCT001 BKN002 TEMPO 1312/1315 3000 DZRA SCT003 BKN004 BECMG 1314/1316 SCT018 BKN025

EBBL

EBBL 131349Z 29007KT 3500 -RA SCT007 SCT010 BKN020 05/04 Q0979 YLO GRN TEMPO YLO

TAF EBBL 121541Z 1219/1307 18012G25KT 8000 SCT020 BKN030 BECMG 1220/1222 3000 -RA/DZ SCT008 BKN010 TEMPO 1221/1302 18015G30KT 2000 RA/DZ SCT006 BKN010 OVC020 TEMPO 1302/1307 18015G30KT 3000 SHRA SCT006 SCT012TCU OVC020

Always consult the official METAR resources.